sensor_id;sensor_type;location;lat;lon;timestamp;pressure;altitude;pressure_sealevel;temperature;humidity
35489;BME280;21602;55.670;37.578;2023-04-09T00:01:56;100200.41;;;8.65;57.12
35489;BME280;21602;55.670;37.578;2023-04-09T00:04:21;100201.84;;;8.67;57.14
35489;BME280;21602;55.670;37.578;2023-04-09T00:06:48;100200.44;;;8.71;56.82
35489;BME280;21602;55.670;37.578;2023-04-09T00:09:14;100207.00;;;8.76;56.97
35489;BME280;21602;55.670;37.578;2023-04-09T00:11:40;100199.63;;;8.78;56.85
35489;BME280;21602;55.670;37.578;2023-04-09T00:14:05;100204.94;;;8.78;56.89
35489;BME280;21602;55.670;37.578;2023-04-09T00:16:31;100202.28;;;8.78;56.92
35489;BME280;21602;55.670;37.578;2023-04-09T00:18:57;100196.97;;;8.78;57.00
35489;BME280;21602;55.670;37.578;2023-04-09T00:21:23;100207.59;;;8.78;56.96
35489;BME280;21602;55.670;37.578;2023-04-09T00:23:49;100199.63;;;8.78;56.64
35489;BME280;21602;55.670;37.578;2023-04-09T00:26:15;100207.81;;;8.76;56.88
35489;BME280;21602;55.670;37.578;2023-04-09T00:28:41;100202.88;;;8.73;56.90
35489;BME280;21602;55.670;37.578;2023-04-09T00:31:07;100198.41;;;8.74;56.68
35489;BME280;21602;55.670;37.578;2023-04-09T00:33:34;100204.94;;;8.71;56.78
35489;BME280;21602;55.670;37.578;2023-04-09T00:36:00;100199.19;;;8.67;56.91
35489;BME280;21602;55.670;37.578;2023-04-09T00:38:26;100197.75;;;8.65;57.01
35489;BME280;21602;55.670;37.578;2023-04-09T00:40:52;100197.13;;;8.63;57.14
35489;BME280;21602;55.670;37.578;2023-04-09T00:43:18;100202.44;;;8.63;57.25
35489;BME280;21602;55.670;37.578;2023-04-09T00:45:44;100199.59;;;8.64;57.37
35489;BME280;21602;55.670;37.578;2023-04-09T00:48:11;100194.66;;;8.61;57.25
35489;BME280;21602;55.670;37.578;2023-04-09T00:50:37;100193.03;;;8.60;57.26
35489;BME280;21602;55.670;37.578;2023-04-09T00:53:06;100201.25;;;8.65;57.27
35489;BME280;21602;55.670;37.578;2023-04-09T00:55:34;100201.66;;;8.69;57.48
35489;BME280;21602;55.670;37.578;2023-04-09T00:58:01;100200.00;;;8.68;57.57
35489;BME280;21602;55.670;37.578;2023-04-09T01:00:27;100201.03;;;8.67;57.28
35489;BME280;21602;55.670;37.578;2023-04-09T01:02:55;100196.31;;;8.62;57.50
35489;BME280;21602;55.670;37.578;2023-04-09T01:05:24;100197.94;;;8.57;57.53
35489;BME280;21602;55.670;37.578;2023-04-09T01:08:29;100195.06;;;8.58;57.74
35489;BME280;21602;55.670;37.578;2023-04-09T01:11:25;100201.19;;;8.52;57.86
35489;BME280;21602;55.670;37.578;2023-04-09T01:14:00;100197.50;;;8.53;57.85
35489;BME280;21602;55.670;37.578;2023-04-09T01:16:33;100196.69;;;8.53;57.79
35489;BME280;21602;55.670;37.578;2023-04-09T01:19:08;100194.22;;;8.51;58.03
35489;BME280;21602;55.670;37.578;2023-04-09T01:21:37;100200.38;;;8.52;58.00
35489;BME280;21602;55.670;37.578;2023-04-09T01:27:38;100194.63;;;8.48;58.18
35489;BME280;21602;55.670;37.578;2023-04-09T01:30:06;100196.47;;;8.48;58.12
35489;BME280;21602;55.670;37.578;2023-04-09T01:32:36;100198.91;;;8.49;58.15
35489;BME280;21602;55.670;37.578;2023-04-09T01:35:03;100205.06;;;8.50;58.36
35489;BME280;21602;55.670;37.578;2023-04-09T01:37:30;100200.75;;;8.49;58.26
35489;BME280;21602;55.670;37.578;2023-04-09T01:39:57;100206.06;;;8.49;58.49
35489;BME280;21602;55.670;37.578;2023-04-09T01:42:24;100200.56;;;8.50;58.45
35489;BME280;21602;55.670;37.578;2023-04-09T01:44:51;100204.06;;;8.51;58.55
35489;BME280;21602;55.670;37.578;2023-04-09T01:47:18;100202.00;;;8.46;58.32
35489;BME280;21602;55.670;37.578;2023-04-09T01:49:44;100202.81;;;8.46;58.40
35489;BME280;21602;55.670;37.578;2023-04-09T01:52:11;100213.44;;;8.46;58.55
35489;BME280;21602;55.670;37.578;2023-04-09T01:54:37;100209.75;;;8.48;58.71
35489;BME280;21602;55.670;37.578;2023-04-09T01:57:06;100206.06;;;8.49;58.76
35489;BME280;21602;55.670;37.578;2023-04-09T01:59:31;100199.56;;;8.51;58.79
35489;BME280;21602;55.670;37.578;2023-04-09T02:02:00;100205.47;;;8.53;58.54
35489;BME280;21602;55.670;37.578;2023-04-09T02:04:40;100203.84;;;8.52;58.57
35489;BME280;21602;55.670;37.578;2023-04-09T02:07:17;100197.91;;;8.50;58.57
35489;BME280;21602;55.670;37.578;2023-04-09T02:09:46;100205.25;;;8.48;58.68
35489;BME280;21602;55.670;37.578;2023-04-09T02:12:17;100198.09;;;8.49;58.75
35489;BME280;21602;55.670;37.578;2023-04-09T02:14:45;100205.47;;;8.53;59.06
35489;BME280;21602;55.670;37.578;2023-04-09T02:17:12;100207.13;;;8.54;58.97
35489;BME280;21602;55.670;37.578;2023-04-09T02:19:42;100208.97;;;8.54;58.99
35489;BME280;21602;55.670;37.578;2023-04-09T02:22:09;100203.84;;;8.52;59.07
35489;BME280;21602;55.670;37.578;2023-04-09T02:24:36;100198.31;;;8.54;59.01
35489;BME280;21602;55.670;37.578;2023-04-09T02:27:03;100210.63;;;8.55;59.25
35489;BME280;21602;55.670;37.578;2023-04-09T02:29:29;100203.47;;;8.55;59.27
35489;BME280;21602;55.670;37.578;2023-04-09T02:31:55;100204.47;;;8.54;59.22
35489;BME280;21602;55.670;37.578;2023-04-09T02:34:22;100201.56;;;8.49;59.20
35489;BME280;21602;55.670;37.578;2023-04-09T02:36:48;100203.41;;;8.49;59.14
35489;BME280;21602;55.670;37.578;2023-04-09T02:39:13;100197.06;;;8.43;59.19
35489;BME280;21602;55.670;37.578;2023-04-09T02:41:40;100202.75;;;8.40;59.40
35489;BME280;21602;55.670;37.578;2023-04-09T02:44:06;100199.84;;;8.35;59.55
35489;BME280;21602;55.670;37.578;2023-04-09T02:46:32;100192.47;;;8.30;59.45
35489;BME280;21602;55.670;37.578;2023-04-09T02:48:58;100202.69;;;8.27;59.94
35489;BME280;21602;55.670;37.578;2023-04-09T02:51:24;100200.66;;;8.29;59.68
35489;BME280;21602;55.670;37.578;2023-04-09T02:53:50;100205.34;;;8.27;59.95
35489;BME280;21602;55.670;37.578;2023-04-09T02:56:16;100207.19;;;8.26;60.14
35489;BME280;21602;55.670;37.578;2023-04-09T02:58:41;100206.75;;;8.23;59.91
35489;BME280;21602;55.670;37.578;2023-04-09T03:01:07;100205.53;;;8.25;60.15
35489;BME280;21602;55.670;37.578;2023-04-09T03:03:33;100202.69;;;8.27;60.24
35489;BME280;21602;55.670;37.578;2023-04-09T03:05:59;100205.97;;;8.29;60.03
35489;BME280;21602;55.670;37.578;2023-04-09T03:08:25;100205.75;;;8.30;60.02
35489;BME280;21602;55.670;37.578;2023-04-09T03:10:51;100201.91;;;8.33;60.07
35489;BME280;21602;55.670;37.578;2023-04-09T03:13:17;100212.53;;;8.33;60.27
35489;BME280;21602;55.670;37.578;2023-04-09T03:15:43;100207.22;;;8.33;60.22
35489;BME280;21602;55.670;37.578;2023-04-09T03:18:10;100208.63;;;8.29;60.40
35489;BME280;21602;55.670;37.578;2023-04-09T03:20:37;100210.47;;;8.28;60.16
35489;BME280;21602;55.670;37.578;2023-04-09T03:23:04;100204.72;;;8.25;60.21
35489;BME280;21602;55.670;37.578;2023-04-09T03:25:35;100210.84;;;8.25;60.49
35489;BME280;21602;55.670;37.578;2023-04-09T03:28:09;100208.00;;;8.27;60.34
35489;BME280;21602;55.670;37.578;2023-04-09T03:30:41;100212.69;;;8.25;60.33
35489;BME280;21602;55.670;37.578;2023-04-09T03:33:07;100206.75;;;8.23;60.71
35489;BME280;21602;55.670;37.578;2023-04-09T03:35:43;100207.97;;;8.20;60.58
35489;BME280;21602;55.670;37.578;2023-04-09T03:38:10;100210.19;;;8.16;60.69
35489;BME280;21602;55.670;37.578;2023-04-09T03:40:36;100210.81;;;8.12;60.76
35489;BME280;21602;55.670;37.578;2023-04-09T03:43:03;100201.97;;;8.11;61.13
35489;BME280;21602;55.670;37.578;2023-04-09T03:45:31;100211.84;;;8.17;61.18
35489;BME280;21602;55.670;37.578;2023-04-09T03:48:10;100212.66;;;8.18;60.98
35489;BME280;21602;55.670;37.578;2023-04-09T03:50:40;100206.94;;;8.21;60.93
35489;BME280;21602;55.670;37.578;2023-04-09T03:53:08;100201.81;;;8.19;61.12
35489;BME280;21602;55.670;37.578;2023-04-09T03:55:36;100203.88;;;8.17;61.18
35489;BME280;21602;55.670;37.578;2023-04-09T03:58:05;100218.16;;;8.16;60.96
35489;BME280;21602;55.670;37.578;2023-04-09T04:00:38;100206.53;;;8.17;60.92
35489;BME280;21602;55.670;37.578;2023-04-09T04:03:25;100206.53;;;8.17;61.03
35489;BME280;21602;55.670;37.578;2023-04-09T04:06:05;100214.91;;;8.21;60.90
35489;BME280;21602;55.670;37.578;2023-04-09T04:08:42;100207.97;;;8.20;61.09
35489;BME280;21602;55.670;37.578;2023-04-09T04:11:09;100204.09;;;8.23;61.42
35489;BME280;21602;55.670;37.578;2023-04-09T04:13:37;100210.69;;;8.27;61.16
35489;BME280;21602;55.670;37.578;2023-04-09T04:16:07;100205.34;;;8.27;61.06
35489;BME280;21602;55.670;37.578;2023-04-09T04:18:35;100205.16;;;8.35;61.09
35489;BME280;21602;55.670;37.578;2023-04-09T04:21:01;100199.09;;;8.41;60.91
35489;BME280;21602;55.670;37.578;2023-04-09T04:23:28;100202.22;;;8.51;60.62
35489;BME280;21602;55.670;37.578;2023-04-09T04:26:09;100200.38;;;8.58;60.46
35489;BME280;21602;55.670;37.578;2023-04-09T04:28:37;100202.25;;;8.64;60.49
35489;BME280;21602;55.670;37.578;2023-04-09T04:31:10;100201.03;;;8.67;60.45
35489;BME280;21602;55.670;37.578;2023-04-09T04:33:39;100199.59;;;8.64;60.62
35489;BME280;21602;55.670;37.578;2023-04-09T04:36:11;100196.34;;;8.69;60.31
35489;BME280;21602;55.670;37.578;2023-04-09T04:38:42;100199.22;;;8.74;60.34
35489;BME280;21602;55.670;37.578;2023-04-09T04:41:15;100199.44;;;8.79;60.32
35489;BME280;21602;55.670;37.578;2023-04-09T04:43:48;100199.66;;;8.84;60.07
35489;BME280;21602;55.670;37.578;2023-04-09T04:46:19;100196.78;;;8.86;59.95
35489;BME280;21602;55.670;37.578;2023-04-09T04:48:46;100198.84;;;8.90;59.86
35489;BME280;21602;55.670;37.578;2023-04-09T04:51:12;100198.63;;;8.92;60.01
35489;BME280;21602;55.670;37.578;2023-04-09T04:53:44;100187.19;;;8.98;59.96
35489;BME280;21602;55.670;37.578;2023-04-09T04:56:15;100194.78;;;9.08;59.95
35489;BME280;21602;55.670;37.578;2023-04-09T04:59:01;100196.00;;;9.18;59.59
35489;BME280;21602;55.670;37.578;2023-04-09T05:01:33;100194.41;;;9.31;59.46
35489;BME280;21602;55.670;37.578;2023-04-09T05:04:01;100195.22;;;9.31;59.28
35489;BME280;21602;55.670;37.578;2023-04-09T05:06:33;100203.00;;;9.26;59.35
35489;BME280;21602;55.670;37.578;2023-04-09T05:09:02;100200.13;;;9.28;59.36
35489;BME280;21602;55.670;37.578;2023-04-09T05:11:37;100200.13;;;9.34;59.14
35489;BME280;21602;55.670;37.578;2023-04-09T05:14:06;100198.28;;;9.41;59.26
35489;BME280;21602;55.670;37.578;2023-04-09T05:16:32;100198.09;;;9.49;59.42
35489;BME280;21602;55.670;37.578;2023-04-09T05:19:02;100199.31;;;9.60;58.86
35489;BME280;21602;55.670;37.578;2023-04-09T05:21:28;100203.19;;;9.71;58.91
35489;BME280;21602;55.670;37.578;2023-04-09T05:23:56;100205.63;;;9.86;58.64
35489;BME280;21602;55.670;37.578;2023-04-09T05:26:22;100205.00;;;9.97;58.33
35489;BME280;21602;55.670;37.578;2023-04-09T05:28:55;100199.25;;;10.07;58.00
35489;BME280;21602;55.670;37.578;2023-04-09T05:31:22;100207.00;;;10.21;57.59
35489;BME280;21602;55.670;37.578;2023-04-09T05:34:02;100212.50;;;10.33;57.36
35489;BME280;21602;55.670;37.578;2023-04-09T05:36:50;100203.66;;;10.46;57.17
35489;BME280;21602;55.670;37.578;2023-04-09T05:39:17;100206.50;;;10.51;56.95
35489;BME280;21602;55.670;37.578;2023-04-09T05:41:44;100203.78;;;10.58;56.82
35489;BME280;21602;55.670;37.578;2023-04-09T05:44:19;100202.13;;;10.63;56.63
35489;BME280;21602;55.670;37.578;2023-04-09T05:46:47;100206.81;;;10.74;56.68
35489;BME280;21602;55.670;37.578;2023-04-09T05:49:17;100211.25;;;10.87;56.77
35489;BME280;21602;55.670;37.578;2023-04-09T05:51:48;100214.22;;;11.04;56.26
35489;BME280;21602;55.670;37.578;2023-04-09T05:54:20;100212.72;;;11.15;56.15
35489;BME280;21602;55.670;37.578;2023-04-09T05:56:46;100215.34;;;11.21;55.81
35489;BME280;21602;55.670;37.578;2023-04-09T05:59:13;100216.19;;;11.22;55.37
35489;BME280;21602;55.670;37.578;2023-04-09T06:01:39;100217.75;;;11.29;55.38
35489;BME280;21602;55.670;37.578;2023-04-09T06:04:05;100213.13;;;11.43;55.15
35489;BME280;21602;55.670;37.578;2023-04-09T06:06:32;100217.78;;;11.54;54.63
35489;BME280;21602;55.670;37.578;2023-04-09T06:08:59;100210.31;;;11.63;54.34
35489;BME280;21602;55.670;37.578;2023-04-09T06:11:25;100214.78;;;11.69;54.17
35489;BME280;21602;55.670;37.578;2023-04-09T06:13:51;100222.53;;;11.77;53.67
35489;BME280;21602;55.670;37.578;2023-04-09T06:16:17;100222.06;;;11.87;53.46
35489;BME280;21602;55.670;37.578;2023-04-09T06:18:42;100220.13;;;11.94;53.28
35489;BME280;21602;55.670;37.578;2023-04-09T06:21:11;100215.72;;;12.00;53.07
35489;BME280;21602;55.670;37.578;2023-04-09T06:23:41;100223.47;;;12.08;52.86
35489;BME280;21602;55.670;37.578;2023-04-09T06:26:07;100222.59;;;12.14;52.82
35489;BME280;21602;55.670;37.578;2023-04-09T06:28:33;100223.50;;;12.26;52.56
35489;BME280;21602;55.670;37.578;2023-04-09T06:30:58;100222.72;;;12.38;52.49
35489;BME280;21602;55.670;37.578;2023-04-09T06:33:25;100221.25;;;12.42;52.45
35489;BME280;21602;55.670;37.578;2023-04-09T06:35:52;100218.00;;;12.40;52.31
35489;BME280;21602;55.670;37.578;2023-04-09T06:38:18;100223.34;;;12.40;52.19
35489;BME280;21602;55.670;37.578;2023-04-09T06:40:45;100223.94;;;12.42;52.54
35489;BME280;21602;55.670;37.578;2023-04-09T06:43:11;100229.66;;;12.45;51.85
35489;BME280;21602;55.670;37.578;2023-04-09T06:45:48;100226.31;;;12.50;51.84
35489;BME280;21602;55.670;37.578;2023-04-09T06:48:14;100226.59;;;12.60;51.94
35489;BME280;21602;55.670;37.578;2023-04-09T06:50:39;100223.28;;;12.76;51.36
35489;BME280;21602;55.670;37.578;2023-04-09T06:53:06;100221.84;;;12.92;50.96
35489;BME280;21602;55.670;37.578;2023-04-09T06:55:31;100225.41;;;13.16;50.87
35489;BME280;21602;55.670;37.578;2023-04-09T06:57:58;100218.97;;;13.36;50.35
35489;BME280;21602;55.670;37.578;2023-04-09T07:00:25;100230.44;;;13.54;50.28
35489;BME280;21602;55.670;37.578;2023-04-09T07:02:52;100229.72;;;13.71;49.75
35489;BME280;21602;55.670;37.578;2023-04-09T07:05:18;100236.28;;;13.87;49.29
35489;BME280;21602;55.670;37.578;2023-04-09T07:07:44;100226.97;;;14.01;48.89
35489;BME280;21602;55.670;37.578;2023-04-09T07:10:09;100232.78;;;13.98;48.10
35489;BME280;21602;55.670;37.578;2023-04-09T07:12:35;100228.94;;;13.94;48.65
35489;BME280;21602;55.670;37.578;2023-04-09T07:15:03;100236.41;;;13.92;48.42
35489;BME280;21602;55.670;37.578;2023-04-09T07:17:30;100236.75;;;13.83;48.37
35489;BME280;21602;55.670;37.578;2023-04-09T07:19:56;100239.78;;;13.75;48.50
35489;BME280;21602;55.670;37.578;2023-04-09T07:22:24;100243.50;;;13.74;48.26
35489;BME280;21602;55.670;37.578;2023-04-09T07:24:51;100243.97;;;13.71;48.29
35489;BME280;21602;55.670;37.578;2023-04-09T07:27:27;100237.09;;;13.87;48.51
35489;BME280;21602;55.670;37.578;2023-04-09T07:29:55;100243.19;;;14.06;47.83
35489;BME280;21602;55.670;37.578;2023-04-09T07:32:22;100246.53;;;14.25;47.72
35489;BME280;21602;55.670;37.578;2023-04-09T07:34:51;100235.06;;;14.41;47.95
35489;BME280;21602;55.670;37.578;2023-04-09T07:37:18;100235.19;;;14.58;47.56
35489;BME280;21602;55.670;37.578;2023-04-09T07:39:44;100240.75;;;14.68;46.67
35489;BME280;21602;55.670;37.578;2023-04-09T07:42:11;100244.34;;;14.74;46.70
35489;BME280;21602;55.670;37.578;2023-04-09T07:44:36;100239.69;;;14.69;46.17
35489;BME280;21602;55.670;37.578;2023-04-09T07:47:04;100244.50;;;14.55;45.89
35489;BME280;21602;55.670;37.578;2023-04-09T07:49:31;100240.09;;;14.49;45.89
35489;BME280;21602;55.670;37.578;2023-04-09T07:51:58;100235.41;;;14.45;46.09
35489;BME280;21602;55.670;37.578;2023-04-09T07:54:25;100235.41;;;14.45;45.95
35489;BME280;21602;55.670;37.578;2023-04-09T07:56:51;100242.66;;;14.44;45.72
35489;BME280;21602;55.670;37.578;2023-04-09T07:59:18;100242.44;;;14.34;46.15
35489;BME280;21602;55.670;37.578;2023-04-09T08:01:44;100241.97;;;14.25;45.79
35489;BME280;21602;55.670;37.578;2023-04-09T08:04:10;100240.94;;;14.15;45.89
35489;BME280;21602;55.670;37.578;2023-04-09T08:06:37;100238.03;;;14.04;45.79
35489;BME280;21602;55.670;37.578;2023-04-09T08:09:04;100237.69;;;14.01;46.17
35489;BME280;21602;55.670;37.578;2023-04-09T08:11:30;100239.19;;;14.08;46.83
35489;BME280;21602;55.670;37.578;2023-04-09T08:13:55;100227.97;;;14.23;46.18
35489;BME280;21602;55.670;37.578;2023-04-09T08:16:29;100231.44;;;14.35;46.00
35489;BME280;21602;55.670;37.578;2023-04-09T08:18:55;100228.16;;;14.45;45.02
35489;BME280;21602;55.670;37.578;2023-04-09T08:21:22;100235.78;;;14.37;44.02
35489;BME280;21602;55.670;37.578;2023-04-09T08:23:48;100229.72;;;14.29;43.81
35489;BME280;21602;55.670;37.578;2023-04-09T08:26:13;100226.94;;;14.24;43.09
35489;BME280;21602;55.670;37.578;2023-04-09T08:28:39;100222.13;;;14.26;43.29
35489;BME280;21602;55.670;37.578;2023-04-09T08:31:08;100226.59;;;14.21;43.37
35489;BME280;21602;55.670;37.578;2023-04-09T08:33:33;100230.44;;;14.13;43.05
35489;BME280;21602;55.670;37.578;2023-04-09T08:36:00;100231.59;;;14.17;43.45
35489;BME280;21602;55.670;37.578;2023-04-09T08:38:25;100227.50;;;14.26;43.41
35489;BME280;21602;55.670;37.578;2023-04-09T08:40:51;100226.09;;;14.35;42.95
35489;BME280;21602;55.670;37.578;2023-04-09T08:43:18;100228.06;;;14.28;43.10
35489;BME280;21602;55.670;37.578;2023-04-09T08:45:47;100227.72;;;14.37;43.18
35489;BME280;21602;55.670;37.578;2023-04-09T08:48:13;100226.19;;;14.41;43.06
35489;BME280;21602;55.670;37.578;2023-04-09T08:50:40;100218.59;;;14.49;43.08
35489;BME280;21602;55.670;37.578;2023-04-09T08:53:07;100216.78;;;14.67;43.75
35489;BME280;21602;55.670;37.578;2023-04-09T08:55:34;100217.09;;;14.82;43.12
35489;BME280;21602;55.670;37.578;2023-04-09T08:58:05;100216.16;;;14.76;42.36
35489;BME280;21602;55.670;37.578;2023-04-09T09:00:32;100216.38;;;14.58;42.46
35489;BME280;21602;55.670;37.578;2023-04-09T09:03:10;100208.06;;;14.48;42.72
35489;BME280;21602;55.670;37.578;2023-04-09T09:05:42;100219.19;;;14.40;43.05
35489;BME280;21602;55.670;37.578;2023-04-09T09:08:13;100219.53;;;14.31;43.17
35489;BME280;21602;55.670;37.578;2023-04-09T09:10:47;100218.47;;;14.44;43.52
35489;BME280;21602;55.670;37.578;2023-04-09T09:13:27;100215.88;;;14.61;44.25
35489;BME280;21602;55.670;37.578;2023-04-09T09:16:11;100215.31;;;14.88;44.98
35489;BME280;21602;55.670;37.578;2023-04-09T09:18:39;100217.22;;;15.04;43.11
35489;BME280;21602;55.670;37.578;2023-04-09T09:21:16;100212.75;;;15.09;42.89
35489;BME280;21602;55.670;37.578;2023-04-09T09:23:45;100207.69;;;15.13;42.71
35489;BME280;21602;55.670;37.578;2023-04-09T09:26:16;100206.00;;;15.07;42.61
35489;BME280;21602;55.670;37.578;2023-04-09T09:28:46;100205.56;;;14.98;42.72
35489;BME280;21602;55.670;37.578;2023-04-09T09:31:14;100200.09;;;14.93;43.50
35489;BME280;21602;55.670;37.578;2023-04-09T09:33:40;100201.00;;;14.99;43.62
35489;BME280;21602;55.670;37.578;2023-04-09T09:36:07;100194.81;;;14.98;43.01
35489;BME280;21602;55.670;37.578;2023-04-09T09:38:57;100188.94;;;15.01;42.66
35489;BME280;21602;55.670;37.578;2023-04-09T09:41:26;100186.50;;;15.00;42.94
35489;BME280;21602;55.670;37.578;2023-04-09T09:43:52;100192.06;;;15.10;42.77
35489;BME280;21602;55.670;37.578;2023-04-09T09:46:21;100186.19;;;15.13;42.46
35489;BME280;21602;55.670;37.578;2023-04-09T09:48:47;100182.94;;;15.11;42.43
35489;BME280;21602;55.670;37.578;2023-04-09T09:51:14;100191.47;;;15.08;42.92
35489;BME280;21602;55.670;37.578;2023-04-09T09:53:45;100191.47;;;15.08;42.25
35489;BME280;21602;55.670;37.578;2023-04-09T09:56:18;100183.31;;;15.03;42.33
35489;BME280;21602;55.670;37.578;2023-04-09T09:58:59;100195.41;;;15.00;42.39
35489;BME280;21602;55.670;37.578;2023-04-09T10:01:28;100183.25;;;14.98;42.45
35489;BME280;21602;55.670;37.578;2023-04-09T10:03:59;100188.78;;;15.08;42.47
35489;BME280;21602;55.670;37.578;2023-04-09T10:06:28;100190.75;;;15.13;42.27
35489;BME280;21602;55.670;37.578;2023-04-09T10:09:02;100184.66;;;15.17;42.26
35489;BME280;21602;55.670;37.578;2023-04-09T10:11:34;100187.34;;;15.17;42.13
35489;BME280;21602;55.670;37.578;2023-04-09T10:14:04;100180.16;;;15.23;42.12
35489;BME280;21602;55.670;37.578;2023-04-09T10:16:30;100182.63;;;15.24;41.90
35489;BME280;21602;55.670;37.578;2023-04-09T10:18:57;100175.78;;;15.33;42.83
35489;BME280;21602;55.670;37.578;2023-04-09T10:24:05;100168.59;;;15.73;41.93
35489;BME280;21602;55.670;37.578;2023-04-09T10:26:33;100171.50;;;15.88;41.61
35489;BME280;21602;55.670;37.578;2023-04-09T10:29:24;100177.56;;;15.78;41.37
35489;BME280;21602;55.670;37.578;2023-04-09T10:32:05;100179.69;;;15.59;41.66
35489;BME280;21602;55.670;37.578;2023-04-09T10:34:37;100175.28;;;15.53;42.36
35489;BME280;21602;55.670;37.578;2023-04-09T10:37:12;100178.13;;;15.47;41.76
35489;BME280;21602;55.670;37.578;2023-04-09T10:39:40;100172.91;;;15.40;42.00
35489;BME280;21602;55.670;37.578;2023-04-09T10:42:23;100170.38;;;15.50;41.56
35489;BME280;21602;55.670;37.578;2023-04-09T10:45:10;100175.28;;;15.53;41.23
35489;BME280;21602;55.670;37.578;2023-04-09T10:47:38;100174.84;;;15.61;41.47
35489;BME280;21602;55.670;37.578;2023-04-09T10:50:19;100169.56;;;15.83;40.84
35489;BME280;21602;55.670;37.578;2023-04-09T10:52:46;100167.94;;;16.04;40.90
35489;BME280;21602;55.670;37.578;2023-04-09T10:55:38;100164.78;;;16.29;40.27
35489;BME280;21602;55.670;37.578;2023-04-09T10:58:06;100166.25;;;16.42;40.38
35489;BME280;21602;55.670;37.578;2023-04-09T11:00:36;100168.25;;;16.52;40.64
35489;BME280;21602;55.670;37.578;2023-04-09T11:03:24;100165.88;;;16.55;40.08
35489;BME280;21602;55.670;37.578;2023-04-09T11:06:04;100159.19;;;16.36;40.24
35489;BME280;21602;55.670;37.578;2023-04-09T11:08:35;100160.94;;;16.25;40.74
35489;BME280;21602;55.670;37.578;2023-04-09T11:11:06;100157.69;;;16.23;40.70
35489;BME280;21602;55.670;37.578;2023-04-09T11:13:32;100167.47;;;16.29;40.90
35489;BME280;21602;55.670;37.578;2023-04-09T11:16:01;100159.94;;;16.31;40.39
35489;BME280;21602;55.670;37.578;2023-04-09T11:18:31;100163.00;;;16.40;40.37
35489;BME280;21602;55.670;37.578;2023-04-09T11:21:00;100162.53;;;16.43;40.36
35489;BME280;21602;55.670;37.578;2023-04-09T11:23:28;100160.59;;;16.38;40.04
35489;BME280;21602;55.670;37.578;2023-04-09T11:25:54;100160.81;;;16.37;39.82
35489;BME280;21602;55.670;37.578;2023-04-09T11:28:22;100152.13;;;16.30;39.46
35489;BME280;21602;55.670;37.578;2023-04-09T11:30:51;100152.00;;;16.20;39.46
35489;BME280;21602;55.670;37.578;2023-04-09T11:33:18;100152.63;;;16.05;39.64
35489;BME280;21602;55.670;37.578;2023-04-09T11:35:44;100151.44;;;15.96;40.14
35489;BME280;21602;55.670;37.578;2023-04-09T11:38:11;100153.31;;;15.95;40.19
35489;BME280;21602;55.670;37.578;2023-04-09T11:40:40;100147.66;;;15.97;40.50
35489;BME280;21602;55.670;37.578;2023-04-09T11:43:12;100139.00;;;15.95;40.27
35489;BME280;21602;55.670;37.578;2023-04-09T11:45:41;100149.63;;;15.84;40.73
35489;BME280;21602;55.670;37.578;2023-04-09T11:48:07;100147.69;;;15.80;40.52
35489;BME280;21602;55.670;37.578;2023-04-09T11:50:33;100149.50;;;15.74;40.53
35489;BME280;21602;55.670;37.578;2023-04-09T11:52:59;100141.38;;;15.69;41.15
35489;BME280;21602;55.670;37.578;2023-04-09T11:55:28;100145.13;;;15.68;40.83
35489;BME280;21602;55.670;37.578;2023-04-09T11:57:59;100142.91;;;15.65;40.24
35489;BME280;21602;55.670;37.578;2023-04-09T12:00:26;100137.91;;;15.57;40.57
35489;BME280;21602;55.670;37.578;2023-04-09T12:03:03;100142.75;;;15.55;40.34
35489;BME280;21602;55.670;37.578;2023-04-09T12:05:31;100139.41;;;15.48;40.41
35489;BME280;21602;55.670;37.578;2023-04-09T12:08:02;100140.38;;;15.42;40.33
35489;BME280;21602;55.670;37.578;2023-04-09T12:10:38;100139.31;;;15.43;40.39
35489;BME280;21602;55.670;37.578;2023-04-09T12:13:07;100134.53;;;15.45;40.35
35489;BME280;21602;55.670;37.578;2023-04-09T12:15:36;100137.28;;;15.50;40.40
35489;BME280;21602;55.670;37.578;2023-04-09T12:18:07;100130.34;;;15.54;40.11
35489;BME280;21602;55.670;37.578;2023-04-09T12:20:34;100126.34;;;15.56;40.25
35489;BME280;21602;55.670;37.578;2023-04-09T12:23:03;100122.91;;;15.61;40.27
35489;BME280;21602;55.670;37.578;2023-04-09T12:25:30;100127.34;;;15.67;39.96
35489;BME280;21602;55.670;37.578;2023-04-09T12:27:56;100126.09;;;15.75;39.68
35489;BME280;21602;55.670;37.578;2023-04-09T12:30:23;100128.44;;;15.88;39.64
35489;BME280;21602;55.670;37.578;2023-04-09T12:32:51;100125.59;;;16.00;39.49
35489;BME280;21602;55.670;37.578;2023-04-09T12:35:17;100118.88;;;16.19;39.42
35489;BME280;21602;55.670;37.578;2023-04-09T12:37:43;100123.78;;;16.27;39.30
35489;BME280;21602;55.670;37.578;2023-04-09T12:40:10;100125.03;;;16.42;39.09
35489;BME280;21602;55.670;37.578;2023-04-09T12:42:39;100119.56;;;16.58;39.09
35489;BME280;21602;55.670;37.578;2023-04-09T12:45:07;100123.81;;;16.76;38.95
35489;BME280;21602;55.670;37.578;2023-04-09T12:47:33;100120.94;;;16.88;38.55
35489;BME280;21602;55.670;37.578;2023-04-09T12:50:00;100124.50;;;16.94;38.47
35489;BME280;21602;55.670;37.578;2023-04-09T12:52:26;100125.84;;;16.91;38.22
35489;BME280;21602;55.670;37.578;2023-04-09T12:54:52;100118.78;;;16.90;38.33
35489;BME280;21602;55.670;37.578;2023-04-09T12:57:18;100119.31;;;16.87;38.16
35489;BME280;21602;55.670;37.578;2023-04-09T12:59:44;100111.19;;;16.82;38.11
35489;BME280;21602;55.670;37.578;2023-04-09T13:02:10;100115.19;;;16.79;38.01